sensor_id;sensor_type;location;lat;lon;timestamp;pressure;altitude;pressure_sealevel;temperature;humidity
13058;BME280;6595;49.578;11.012;2023-05-16T00:00:24;984.686;;;10.94;84.2
13058;BME280;6595;49.578;11.012;2023-05-16T00:02:23;984.627;;;10.94;84.1
13058;BME280;6595;49.578;11.012;2023-05-16T00:04:24;984.621;;;10.94;84.5
13058;BME280;6595;49.578;11.012;2023-05-16T00:06:23;984.686;;;10.94;83.9
13058;BME280;6595;49.578;11.012;2023-05-16T00:08:23;984.647;;;10.94;84.0
13058;BME280;6595;49.578;11.012;2023-05-16T00:10:23;984.658;;;10.94;84.5
13058;BME280;6595;49.578;11.012;2023-05-16T00:12:24;984.659;;;10.92;84.6
13058;BME280;6595;49.578;11.012;2023-05-16T00:14:23;984.650;;;10.94;84.4
13058;BME280;6595;49.578;11.012;2023-05-16T00:16:23;984.632;;;10.97;84.3
13058;BME280;6595;49.578;11.012;2023-05-16T00:18:24;984.613;;;11.04;84.2
13058;BME280;6595;49.578;11.012;2023-05-16T00:20:24;984.627;;;11.08;84.3
13058;BME280;6595;49.578;11.012;2023-05-16T00:22:23;984.663;;;11.08;83.6
13058;BME280;6595;49.578;11.012;2023-05-16T00:24:24;984.622;;;11.08;83.7
13058;BME280;6595;49.578;11.012;2023-05-16T00:26:24;984.683;;;11.08;83.6
13058;BME280;6595;49.578;11.012;2023-05-16T00:28:23;984.648;;;11.10;83.5
13058;BME280;6595;49.578;11.012;2023-05-16T00:30:23;984.663;;;11.02;83.3
13058;BME280;6595;49.578;11.012;2023-05-16T00:32:24;984.594;;;11.05;84.3
13058;BME280;6595;49.578;11.012;2023-05-16T00:34:23;984.616;;;11.10;84.3
13058;BME280;6595;49.578;11.012;2023-05-16T00:36:23;984.651;;;11.11;84.0
13058;BME280;6595;49.578;11.012;2023-05-16T00:38:24;984.688;;;11.11;84.5
13058;BME280;6595;49.578;11.012;2023-05-16T00:40:24;984.664;;;11.12;84.3
13058;BME280;6595;49.578;11.012;2023-05-16T00:42:23;984.748;;;11.14;84.0
13058;BME280;6595;49.578;11.012;2023-05-16T00:44:24;984.670;;;11.12;83.8
13058;BME280;6595;49.578;11.012;2023-05-16T00:46:23;984.672;;;11.14;84.6
13058;BME280;6595;49.578;11.012;2023-05-16T00:48:23;984.672;;;11.14;84.6
13058;BME280;6595;49.578;11.012;2023-05-16T00:50:24;984.649;;;11.15;84.4
13058;BME280;6595;49.578;11.012;2023-05-16T00:52:23;984.637;;;11.17;84.4
13058;BME280;6595;49.578;11.012;2023-05-16T00:54:25;984.637;;;11.17;84.4
13058;BME280;6595;49.578;11.012;2023-05-16T00:56:23;984.649;;;11.11;84.7
13058;BME280;6595;49.578;11.012;2023-05-16T00:58:24;984.687;;;11.11;84.7
13058;BME280;6595;49.578;11.012;2023-05-16T01:00:24;984.621;;;11.05;84.8
13058;BME280;6595;49.578;11.012;2023-05-16T01:02:23;984.624;;;11.02;85.0
13058;BME280;6595;49.578;11.012;2023-05-16T01:04:24;984.610;;;11.01;85.0
13058;BME280;6595;49.578;11.012;2023-05-16T01:06:23;984.672;;;11.05;86.1
13058;BME280;6595;49.578;11.012;2023-05-16T01:08:23;984.624;;;11.08;85.8
13058;BME280;6595;49.578;11.012;2023-05-16T01:10:25;984.668;;;11.08;86.0
13058;BME280;6595;49.578;11.012;2023-05-16T01:12:31;984.750;;;11.14;85.9
13058;BME280;6595;49.578;11.012;2023-05-16T01:14:30;984.609;;;11.12;85.5
13058;BME280;6595;49.578;11.012;2023-05-16T01:16:29;984.664;;;11.00;85.2
13058;BME280;6595;49.578;11.012;2023-05-16T01:18:30;984.646;;;10.91;85.6
13058;BME280;6595;49.578;11.012;2023-05-16T01:20:29;984.652;;;10.82;85.9
13058;BME280;6595;49.578;11.012;2023-05-16T01:22:29;984.638;;;10.81;85.9
13058;BME280;6595;49.578;11.012;2023-05-16T01:24:32;984.540;;;10.71;85.7
13058;BME280;6595;49.578;11.012;2023-05-16T01:26:25;984.608;;;10.68;86.0
13058;BME280;6595;49.578;11.012;2023-05-16T01:28:24;984.589;;;10.72;85.9
13058;BME280;6595;49.578;11.012;2023-05-16T01:30:23;984.644;;;10.75;86.1
13058;BME280;6595;49.578;11.012;2023-05-16T01:32:23;984.594;;;10.77;85.6
13058;BME280;6595;49.578;11.012;2023-05-16T01:34:24;984.625;;;10.78;85.7
13058;BME280;6595;49.578;11.012;2023-05-16T01:36:25;984.627;;;10.81;85.7
13058;BME280;6595;49.578;11.012;2023-05-16T01:38:25;984.610;;;10.82;85.6
13058;BME280;6595;49.578;11.012;2023-05-16T01:40:29;984.642;;;10.80;85.5
13058;BME280;6595;49.578;11.012;2023-05-16T01:42:26;984.540;;;10.70;85.6
13058;BME280;6595;49.578;11.012;2023-05-16T01:44:28;984.666;;;10.64;85.5
13058;BME280;6595;49.578;11.012;2023-05-16T01:46:26;984.598;;;10.67;85.3
13058;BME280;6595;49.578;11.012;2023-05-16T01:48:31;984.548;;;10.63;85.3
13058;BME280;6595;49.578;11.012;2023-05-16T01:50:24;984.639;;;10.65;85.5
13058;BME280;6595;49.578;11.012;2023-05-16T01:52:27;984.600;;;10.65;85.9
13058;BME280;6595;49.578;11.012;2023-05-16T01:54:24;984.762;;;10.67;86.1
13058;BME280;6595;49.578;11.012;2023-05-16T01:56:24;984.711;;;10.68;86.3
13058;BME280;6595;49.578;11.012;2023-05-16T01:58:27;984.673;;;10.70;86.5
13058;BME280;6595;49.578;11.012;2023-05-16T02:00:23;984.712;;;10.77;86.4
13058;BME280;6595;49.578;11.012;2023-05-16T02:02:23;984.756;;;10.81;86.5
13058;BME280;6595;49.578;11.012;2023-05-16T02:04:24;984.753;;;10.78;86.5
13058;BME280;6595;49.578;11.012;2023-05-16T02:06:24;984.771;;;10.85;86.4
13058;BME280;6595;49.578;11.012;2023-05-16T02:08:23;984.739;;;10.88;86.4
13058;BME280;6595;49.578;11.012;2023-05-16T02:10:24;984.783;;;10.92;86.2
13058;BME280;6595;49.578;11.012;2023-05-16T02:12:24;984.836;;;10.91;86.2
13058;BME280;6595;49.578;11.012;2023-05-16T02:14:24;984.896;;;10.90;86.3
13058;BME280;6595;49.578;11.012;2023-05-16T02:16:24;984.805;;;10.92;86.4
13058;BME280;6595;49.578;11.012;2023-05-16T02:18:23;984.843;;;10.95;86.1
13058;BME280;6595;49.578;11.012;2023-05-16T02:20:24;984.836;;;11.01;86.0
13058;BME280;6595;49.578;11.012;2023-05-16T02:22:23;984.882;;;10.95;85.8
13058;BME280;6595;49.578;11.012;2023-05-16T02:24:24;984.780;;;10.97;86.0
13058;BME280;6595;49.578;11.012;2023-05-16T02:26:23;984.734;;;10.97;85.9
13058;BME280;6595;49.578;11.012;2023-05-16T02:28:23;984.776;;;10.95;85.9
13058;BME280;6595;49.578;11.012;2023-05-16T02:30:24;984.855;;;10.94;86.2
13058;BME280;6595;49.578;11.012;2023-05-16T02:32:23;984.802;;;10.94;86.1
13058;BME280;6595;49.578;11.012;2023-05-16T02:34:23;984.729;;;10.92;86.1
13058;BME280;6595;49.578;11.012;2023-05-16T02:36:24;984.770;;;10.92;86.3
13058;BME280;6595;49.578;11.012;2023-05-16T02:38:23;984.789;;;10.88;86.1
13058;BME280;6595;49.578;11.012;2023-05-16T02:40:24;984.807;;;10.92;86.2
13058;BME280;6595;49.578;11.012;2023-05-16T02:42:24;984.750;;;10.87;86.4
13058;BME280;6595;49.578;11.012;2023-05-16T02:44:23;984.774;;;10.85;86.6
13058;BME280;6595;49.578;11.012;2023-05-16T02:46:25;984.727;;;10.82;86.7
13058;BME280;6595;49.578;11.012;2023-05-16T02:48:23;984.740;;;10.84;86.7
13058;BME280;6595;49.578;11.012;2023-05-16T02:50:24;984.734;;;10.81;86.8
13058;BME280;6595;49.578;11.012;2023-05-16T02:52:23;984.758;;;10.77;87.0
13058;BME280;6595;49.578;11.012;2023-05-16T02:54:23;984.811;;;10.80;87.2
13058;BME280;6595;49.578;11.012;2023-05-16T02:56:23;984.851;;;10.77;87.0
13058;BME280;6595;49.578;11.012;2023-05-16T02:58:23;984.841;;;10.77;87.1
13058;BME280;6595;49.578;11.012;2023-05-16T03:00:24;984.795;;;10.72;87.2
13058;BME280;6595;49.578;11.012;2023-05-16T03:02:23;984.686;;;10.71;87.3
13058;BME280;6595;49.578;11.012;2023-05-16T03:04:23;984.669;;;10.72;87.5
13058;BME280;6595;49.578;11.012;2023-05-16T03:06:24;984.714;;;10.75;87.5
13058;BME280;6595;49.578;11.012;2023-05-16T03:08:23;984.682;;;10.77;87.4
13058;BME280;6595;49.578;11.012;2023-05-16T03:10:24;984.643;;;10.78;87.3
13058;BME280;6595;49.578;11.012;2023-05-16T03:12:23;984.605;;;10.80;88.0
13058;BME280;6595;49.578;11.012;2023-05-16T03:14:24;984.660;;;10.81;88.1
13058;BME280;6595;49.578;11.012;2023-05-16T03:16:23;984.678;;;10.80;87.9
13058;BME280;6595;49.578;11.012;2023-05-16T03:18:23;984.689;;;10.77;88.1
13058;BME280;6595;49.578;11.012;2023-05-16T03:20:24;984.790;;;10.77;88.0
13058;BME280;6595;49.578;11.012;2023-05-16T03:22:23;984.757;;;10.81;87.9
13058;BME280;6595;49.578;11.012;2023-05-16T03:24:24;984.682;;;10.80;87.9
13058;BME280;6595;49.578;11.012;2023-05-16T03:26:24;984.720;;;10.80;88.1
13058;BME280;6595;49.578;11.012;2023-05-16T03:28:23;984.720;;;10.80;88.1
13058;BME280;6595;49.578;11.012;2023-05-16T03:30:24;984.751;;;10.85;88.2
13058;BME280;6595;49.578;11.012;2023-05-16T03:32:23;984.754;;;10.95;88.5
13058;BME280;6595;49.578;11.012;2023-05-16T03:34:23;984.712;;;10.94;88.3
13058;BME280;6595;49.578;11.012;2023-05-16T03:36:23;984.687;;;10.92;88.0
13058;BME280;6595;49.578;11.012;2023-05-16T03:38:23;984.791;;;10.87;88.3
13058;BME280;6595;49.578;11.012;2023-05-16T03:40:24;984.712;;;10.87;88.5
13058;BME280;6595;49.578;11.012;2023-05-16T03:42:23;984.788;;;10.77;87.6
13058;BME280;6595;49.578;11.012;2023-05-16T03:44:24;984.844;;;10.71;87.8
13058;BME280;6595;49.578;11.012;2023-05-16T03:46:23;984.968;;;10.71;87.8
13058;BME280;6595;49.578;11.012;2023-05-16T03:48:23;984.985;;;10.74;87.6
13058;BME280;6595;49.578;11.012;2023-05-16T03:50:24;985.086;;;10.74;87.2
13058;BME280;6595;49.578;11.012;2023-05-16T03:52:23;985.038;;;10.74;86.4
13058;BME280;6595;49.578;11.012;2023-05-16T03:54:24;985.099;;;10.78;86.2
13058;BME280;6595;49.578;11.012;2023-05-16T03:56:23;985.073;;;10.81;86.2
13058;BME280;6595;49.578;11.012;2023-05-16T03:58:24;985.127;;;10.80;86.7
13058;BME280;6595;49.578;11.012;2023-05-16T04:00:24;985.201;;;10.81;86.8
13058;BME280;6595;49.578;11.012;2023-05-16T04:02:23;985.194;;;10.84;86.1
13058;BME280;6595;49.578;11.012;2023-05-16T04:04:23;985.156;;;10.88;86.6
13058;BME280;6595;49.578;11.012;2023-05-16T04:06:24;985.146;;;10.90;86.6
13058;BME280;6595;49.578;11.012;2023-05-16T04:08:23;985.224;;;10.92;86.7
13058;BME280;6595;49.578;11.012;2023-05-16T04:10:24;985.260;;;10.85;86.2
13058;BME280;6595;49.578;11.012;2023-05-16T04:12:24;985.259;;;10.82;86.1
13058;BME280;6595;49.578;11.012;2023-05-16T04:14:23;985.247;;;10.81;86.2
13058;BME280;6595;49.578;11.012;2023-05-16T04:16:24;985.270;;;10.78;86.3
13058;BME280;6595;49.578;11.012;2023-05-16T04:18:23;985.272;;;10.81;86.2
13058;BME280;6595;49.578;11.012;2023-05-16T04:20:23;985.246;;;10.82;86.8
13058;BME280;6595;49.578;11.012;2023-05-16T04:22:24;985.303;;;10.81;87.3
13058;BME280;6595;49.578;11.012;2023-05-16T04:24:23;985.283;;;10.87;87.2
13058;BME280;6595;49.578;11.012;2023-05-16T04:26:23;985.304;;;10.87;87.1
13058;BME280;6595;49.578;11.012;2023-05-16T04:28:24;985.287;;;10.84;87.1
13058;BME280;6595;49.578;11.012;2023-05-16T04:30:23;985.314;;;10.88;87.1
13058;BME280;6595;49.578;11.012;2023-05-16T04:32:24;985.223;;;10.92;87.2
13058;BME280;6595;49.578;11.012;2023-05-16T04:34:24;985.319;;;10.95;87.3
13058;BME280;6595;49.578;11.012;2023-05-16T04:36:23;985.309;;;11.00;87.2
13058;BME280;6595;49.578;11.012;2023-05-16T04:38:24;985.385;;;11.02;86.8
13058;BME280;6595;49.578;11.012;2023-05-16T04:40:24;985.289;;;11.02;86.6
13058;BME280;6595;49.578;11.012;2023-05-16T04:42:23;985.357;;;11.02;86.5
13058;BME280;6595;49.578;11.012;2023-05-16T04:44:24;985.341;;;11.05;87.0
13058;BME280;6595;49.578;11.012;2023-05-16T04:46:23;985.280;;;11.07;87.0
13058;BME280;6595;49.578;11.012;2023-05-16T04:48:23;985.291;;;11.05;87.0
13058;BME280;6595;49.578;11.012;2023-05-16T04:50:24;985.370;;;11.07;86.9
13058;BME280;6595;49.578;11.012;2023-05-16T04:52:24;985.281;;;11.10;86.3
13058;BME280;6595;49.578;11.012;2023-05-16T04:54:23;985.351;;;11.05;85.7
13058;BME280;6595;49.578;11.012;2023-05-16T04:56:24;985.345;;;11.05;86.2
13058;BME280;6595;49.578;11.012;2023-05-16T04:58:23;985.333;;;11.14;85.9
13058;BME280;6595;49.578;11.012;2023-05-16T05:00:24;985.255;;;11.11;85.8
13058;BME280;6595;49.578;11.012;2023-05-16T05:02:24;985.278;;;11.12;85.5
13058;BME280;6595;49.578;11.012;2023-05-16T05:04:23;985.257;;;11.12;85.4
13058;BME280;6595;49.578;11.012;2023-05-16T05:06:23;985.365;;;11.12;85.4
13058;BME280;6595;49.578;11.012;2023-05-16T05:08:24;985.312;;;11.14;85.4
13058;BME280;6595;49.578;11.012;2023-05-16T05:10:23;985.412;;;11.18;85.2
13058;BME280;6595;49.578;11.012;2023-05-16T05:12:23;985.368;;;11.17;85.3
13058;BME280;6595;49.578;11.012;2023-05-16T05:14:24;985.496;;;11.18;85.1
13058;BME280;6595;49.578;11.012;2023-05-16T05:16:23;985.387;;;11.21;85.1
13058;BME280;6595;49.578;11.012;2023-05-16T05:18:24;985.477;;;11.21;84.8
13058;BME280;6595;49.578;11.012;2023-05-16T05:20:24;985.499;;;11.19;85.1
13058;BME280;6595;49.578;11.012;2023-05-16T05:22:23;985.433;;;11.14;85.2
13058;BME280;6595;49.578;11.012;2023-05-16T05:24:24;985.388;;;11.11;85.2
13058;BME280;6595;49.578;11.012;2023-05-16T05:26:23;985.437;;;11.07;85.3
13058;BME280;6595;49.578;11.012;2023-05-16T05:28:23;985.501;;;11.05;85.5
13058;BME280;6595;49.578;11.012;2023-05-16T05:30:24;985.482;;;11.08;85.7
13058;BME280;6595;49.578;11.012;2023-05-16T05:32:23;985.526;;;11.15;85.5
13058;BME280;6595;49.578;11.012;2023-05-16T05:34:24;985.414;;;11.15;85.0
13058;BME280;6595;49.578;11.012;2023-05-16T05:36:23;985.414;;;11.18;84.9
13058;BME280;6595;49.578;11.012;2023-05-16T05:38:24;985.554;;;11.26;84.3
13058;BME280;6595;49.578;11.012;2023-05-16T05:40:23;985.537;;;11.29;84.6
13058;BME280;6595;49.578;11.012;2023-05-16T05:42:23;985.550;;;11.29;84.2
13058;BME280;6595;49.578;11.012;2023-05-16T05:44:24;985.604;;;11.32;83.8
13058;BME280;6595;49.578;11.012;2023-05-16T05:46:23;985.615;;;11.32;83.6
13058;BME280;6595;49.578;11.012;2023-05-16T05:48:24;985.578;;;11.33;83.6
13058;BME280;6595;49.578;11.012;2023-05-16T05:50:23;985.618;;;11.39;83.5
13058;BME280;6595;49.578;11.012;2023-05-16T05:52:25;985.620;;;11.42;83.5
13058;BME280;6595;49.578;11.012;2023-05-16T05:54:24;985.606;;;11.45;83.2
13058;BME280;6595;49.578;11.012;2023-05-16T05:56:23;985.591;;;11.45;83.5
13058;BME280;6595;49.578;11.012;2023-05-16T05:58:24;985.532;;;11.53;83.1
13058;BME280;6595;49.578;11.012;2023-05-16T06:00:23;985.608;;;11.49;83.0
13058;BME280;6595;49.578;11.012;2023-05-16T06:02:24;985.606;;;11.59;83.1
13058;BME280;6595;49.578;11.012;2023-05-16T06:04:24;985.539;;;11.66;82.8
13058;BME280;6595;49.578;11.012;2023-05-16T06:06:23;985.524;;;11.69;82.5
13058;BME280;6595;49.578;11.012;2023-05-16T06:08:24;985.513;;;11.68;82.5
13058;BME280;6595;49.578;11.012;2023-05-16T06:10:23;985.594;;;11.72;82.3
13058;BME280;6595;49.578;11.012;2023-05-16T06:12:23;985.564;;;11.86;82.4
13058;BME280;6595;49.578;11.012;2023-05-16T06:14:24;985.568;;;11.86;81.6
13058;BME280;6595;49.578;11.012;2023-05-16T06:16:23;985.567;;;12.15;82.2
13058;BME280;6595;49.578;11.012;2023-05-16T06:18:24;985.640;;;12.26;80.8
13058;BME280;6595;49.578;11.012;2023-05-16T06:20:23;985.596;;;12.27;79.2
13058;BME280;6595;49.578;11.012;2023-05-16T06:22:23;985.671;;;12.41;79.2
13058;BME280;6595;49.578;11.012;2023-05-16T06:24:24;985.657;;;12.63;78.6
13058;BME280;6595;49.578;11.012;2023-05-16T06:26:23;985.627;;;12.80;77.7
13058;BME280;6595;49.578;11.012;2023-05-16T06:28:23;985.618;;;13.02;76.9
13058;BME280;6595;49.578;11.012;2023-05-16T06:30:24;985.538;;;13.04;77.4
13058;BME280;6595;49.578;11.012;2023-05-16T06:32:23;985.731;;;13.29;76.3
13058;BME280;6595;49.578;11.012;2023-05-16T06:34:24;985.711;;;13.14;75.9
13058;BME280;6595;49.578;11.012;2023-05-16T06:36:24;985.767;;;13.38;76.1
13058;BME280;6595;49.578;11.012;2023-05-16T06:38:23;985.695;;;13.69;76.5
13058;BME280;6595;49.578;11.012;2023-05-16T06:40:24;985.718;;;13.65;74.0
13058;BME280;6595;49.578;11.012;2023-05-16T06:42:23;985.656;;;13.48;74.2
13058;BME280;6595;49.578;11.012;2023-05-16T06:44:24;985.694;;;13.53;74.5
13058;BME280;6595;49.578;11.012;2023-05-16T06:46:23;985.733;;;13.39;74.5
13058;BME280;6595;49.578;11.012;2023-05-16T06:48:23;985.740;;;13.19;74.8
13058;BME280;6595;49.578;11.012;2023-05-16T06:50:24;985.758;;;13.18;75.3
13058;BME280;6595;49.578;11.012;2023-05-16T06:52:23;985.702;;;13.15;76.0
13058;BME280;6595;49.578;11.012;2023-05-16T06:54:24;985.765;;;13.16;75.3
13058;BME280;6595;49.578;11.012;2023-05-16T06:56:23;985.761;;;13.15;75.0
13058;BME280;6595;49.578;11.012;2023-05-16T06:58:23;985.786;;;13.06;75.4
13058;BME280;6595;49.578;11.012;2023-05-16T07:00:24;985.761;;;12.99;75.8
13058;BME280;6595;49.578;11.012;2023-05-16T07:02:23;985.740;;;13.02;75.8
13058;BME280;6595;49.578;11.012;2023-05-16T07:04:23;985.772;;;13.05;75.8
13058;BME280;6595;49.578;11.012;2023-05-16T07:06:24;985.791;;;13.12;76.1
13058;BME280;6595;49.578;11.012;2023-05-16T07:08:23;985.811;;;13.25;75.9
13058;BME280;6595;49.578;11.012;2023-05-16T07:10:24;985.896;;;13.34;75.0
13058;BME280;6595;49.578;11.012;2023-05-16T07:12:23;985.909;;;13.43;74.7
13058;BME280;6595;49.578;11.012;2023-05-16T07:14:23;985.906;;;13.48;74.1
13058;BME280;6595;49.578;11.012;2023-05-16T07:16:24;985.930;;;13.49;73.9
13058;BME280;6595;49.578;11.012;2023-05-16T07:18:23;985.987;;;13.52;73.4
13058;BME280;6595;49.578;11.012;2023-05-16T07:20:23;985.916;;;13.66;74.3
13058;BME280;6595;49.578;11.012;2023-05-16T07:22:24;986.014;;;13.70;73.0
13058;BME280;6595;49.578;11.012;2023-05-16T07:24:23;986.004;;;13.99;74.8
13058;BME280;6595;49.578;11.012;2023-05-16T07:26:24;985.898;;;14.14;73.6
13058;BME280;6595;49.578;11.012;2023-05-16T07:28:23;986.001;;;14.16;71.2
13058;BME280;6595;49.578;11.012;2023-05-16T07:30:24;986.026;;;14.25;71.7
13058;BME280;6595;49.578;11.012;2023-05-16T07:32:24;986.048;;;14.70;70.7
13058;BME280;6595;49.578;11.012;2023-05-16T07:34:23;986.057;;;14.77;70.7
13058;BME280;6595;49.578;11.012;2023-05-16T07:36:24;986.066;;;14.49;69.0
13058;BME280;6595;49.578;11.012;2023-05-16T07:38:23;986.065;;;14.47;69.8
13058;BME280;6595;49.578;11.012;2023-05-16T07:40:23;986.096;;;14.67;69.3
13058;BME280;6595;49.578;11.012;2023-05-16T07:42:24;986.151;;;14.78;69.8
13058;BME280;6595;49.578;11.012;2023-05-16T07:44:23;986.172;;;14.81;68.2
13058;BME280;6595;49.578;11.012;2023-05-16T07:46:24;986.041;;;14.75;68.9
13058;BME280;6595;49.578;11.012;2023-05-16T07:48:23;986.138;;;15.05;69.5
13058;BME280;6595;49.578;11.012;2023-05-16T07:50:24;986.168;;;15.12;67.2
13058;BME280;6595;49.578;11.012;2023-05-16T07:52:23;986.267;;;15.21;67.2
13058;BME280;6595;49.578;11.012;2023-05-16T07:54:23;986.278;;;15.25;66.5
13058;BME280;6595;49.578;11.012;2023-05-16T07:56:24;986.150;;;15.12;65.8
13058;BME280;6595;49.578;11.012;2023-05-16T07:58:23;986.247;;;15.03;65.6
13058;BME280;6595;49.578;11.012;2023-05-16T08:00:24;986.276;;;15.42;66.0
13058;BME280;6595;49.578;11.012;2023-05-16T08:02:24;986.300;;;15.70;63.1
13058;BME280;6595;49.578;11.012;2023-05-16T08:04:23;986.267;;;15.63;64.5
13058;BME280;6595;49.578;11.012;2023-05-16T08:06:24;986.266;;;15.98;63.2
13058;BME280;6595;49.578;11.012;2023-05-16T08:08:24;986.205;;;16.24;64.0
13058;BME280;6595;49.578;11.012;2023-05-16T08:10:23;986.275;;;16.55;63.9
13058;BME280;6595;49.578;11.012;2023-05-16T08:12:24;986.267;;;16.70;62.2
13058;BME280;6595;49.578;11.012;2023-05-16T08:14:23;986.333;;;16.67;61.1
13058;BME280;6595;49.578;11.012;2023-05-16T08:16:23;986.425;;;16.54;60.7
13058;BME280;6595;49.578;11.012;2023-05-16T08:18:24;986.340;;;16.64;63.1
13058;BME280;6595;49.578;11.012;2023-05-16T08:20:23;986.472;;;16.94;61.8
13058;BME280;6595;49.578;11.012;2023-05-16T08:22:24;986.369;;;16.48;59.9
13058;BME280;6595;49.578;11.012;2023-05-16T08:24:24;986.376;;;16.44;61.3
13058;BME280;6595;49.578;11.012;2023-05-16T08:26:23;986.392;;;16.68;61.8
13058;BME280;6595;49.578;11.012;2023-05-16T08:28:24;986.392;;;16.68;61.8
13058;BME280;6595;49.578;11.012;2023-05-16T08:30:25;986.515;;;16.62;62.1
13058;BME280;6595;49.578;11.012;2023-05-16T08:32:23;986.435;;;16.27;62.3
13058;BME280;6595;49.578;11.012;2023-05-16T08:34:24;986.478;;;16.24;63.7
13058;BME280;6595;49.578;11.012;2023-05-16T08:36:23;986.531;;;16.16;64.1
13058;BME280;6595;49.578;11.012;2023-05-16T08:38:23;986.470;;;16.23;63.1
13058;BME280;6595;49.578;11.012;2023-05-16T08:40:25;986.592;;;16.07;62.7
13058;BME280;6595;49.578;11.012;2023-05-16T08:42:24;986.590;;;15.90;62.6
13058;BME280;6595;49.578;11.012;2023-05-16T08:44:23;986.623;;;15.79;62.9
13058;BME280;6595;49.578;11.012;2023-05-16T08:46:24;986.619;;;15.93;64.5
13058;BME280;6595;49.578;11.012;2023-05-16T08:48:25;986.623;;;15.86;63.2
13058;BME280;6595;49.578;11.012;2023-05-16T08:50:24;986.636;;;15.94;64.8
13058;BME280;6595;49.578;11.012;2023-05-16T08:52:26;986.676;;;15.74;63.7
13058;BME280;6595;49.578;11.012;2023-05-16T08:54:24;986.723;;;15.50;64.1
13058;BME280;6595;49.578;11.012;2023-05-16T08:56:23;986.648;;;15.46;64.3
13058;BME280;6595;49.578;11.012;2023-05-16T08:58:24;986.705;;;15.41;64.6
13058;BME280;6595;49.578;11.012;2023-05-16T09:00:23;986.641;;;15.21;64.9
13058;BME280;6595;49.578;11.012;2023-05-16T09:02:23;986.628;;;15.06;65.8
13058;BME280;6595;49.578;11.012;2023-05-16T09:04:24;986.595;;;15.02;66.9
13058;BME280;6595;49.578;11.012;2023-05-16T09:06:24;986.648;;;15.15;67.2
13058;BME280;6595;49.578;11.012;2023-05-16T09:08:23;986.613;;;15.13;67.6
13058;BME280;6595;49.578;11.012;2023-05-16T09:10:24;986.589;;;15.06;68.1
13058;BME280;6595;49.578;11.012;2023-05-16T09:12:24;986.608;;;15.01;67.9
13058;BME280;6595;49.578;11.012;2023-05-16T09:14:23;986.599;;;15.02;68.6
13058;BME280;6595;49.578;11.012;2023-05-16T09:16:24;986.599;;;15.02;68.6
13058;BME280;6595;49.578;11.012;2023-05-16T09:18:23;986.522;;;14.94;67.4
13058;BME280;6595;49.578;11.012;2023-05-16T09:20:23;986.494;;;14.74;67.7
13058;BME280;6595;49.578;11.012;2023-05-16T09:22:23;986.623;;;14.82;67.8
13058;BME280;6595;49.578;11.012;2023-05-16T09:24:25;986.614;;;14.84;67.8
13058;BME280;6595;49.578;11.012;2023-05-16T09:26:25;986.654;;;14.98;67.8
13058;BME280;6595;49.578;11.012;2023-05-16T09:28:24;986.650;;;15.05;65.6
13058;BME280;6595;49.578;11.012;2023-05-16T09:30:27;986.709;;;15.06;65.4
13058;BME280;6595;49.578;11.012;2023-05-16T09:32:24;986.779;;;15.12;64.7
13058;BME280;6595;49.578;11.012;2023-05-16T09:34:23;986.682;;;15.13;63.6
13058;BME280;6595;49.578;11.012;2023-05-16T09:36:24;986.698;;;15.35;64.1
13058;BME280;6595;49.578;11.012;2023-05-16T09:38:24;986.792;;;15.63;63.1
13058;BME280;6595;49.578;11.012;2023-05-16T09:40:23;986.818;;;15.70;61.7
13058;BME280;6595;49.578;11.012;2023-05-16T09:42:24;986.787;;;15.85;62.8
13058;BME280;6595;49.578;11.012;2023-05-16T09:44:23;986.892;;;15.69;61.2
13058;BME280;6595;49.578;11.012;2023-05-16T09:46:25;986.912;;;15.47;62.1
13058;BME280;6595;49.578;11.012;2023-05-16T09:48:24;986.903;;;15.56;62.1
13058;BME280;6595;49.578;11.012;2023-05-16T09:50:23;987.006;;;15.53;62.8
13058;BME280;6595;49.578;11.012;2023-05-16T09:52:25;986.913;;;15.32;62.8
13058;BME280;6595;49.578;11.012;2023-05-16T09:54:31;986.904;;;15.33;64.3
13058;BME280;6595;49.578;11.012;2023-05-16T09:56:24;986.951;;;15.35;63.3
13058;BME280;6595;49.578;11.012;2023-05-16T09:58:27;986.927;;;15.13;63.3
13058;BME280;6595;49.578;11.012;2023-05-16T10:00:28;987.003;;;15.17;64.8
13058;BME280;6595;49.578;11.012;2023-05-16T10:02:24;986.926;;;15.25;64.3
13058;BME280;6595;49.578;11.012;2023-05-16T10:04:23;986.926;;;15.25;64.3
13058;BME280;6595;49.578;11.012;2023-05-16T10:06:24;986.981;;;15.35;64.0
13058;BME280;6595;49.578;11.012;2023-05-16T10:08:25;986.896;;;15.25;63.5
13058;BME280;6595;49.578;11.012;2023-05-16T10:10:24;986.896;;;15.25;63.5
13058;BME280;6595;49.578;11.012;2023-05-16T10:12:28;986.893;;;15.19;64.1
13058;BME280;6595;49.578;11.012;2023-05-16T10:14:24;986.915;;;15.13;63.7
13058;BME280;6595;49.578;11.012;2023-05-16T10:16:24;986.834;;;15.29;64.0
13058;BME280;6595;49.578;11.012;2023-05-16T10:18:28;986.797;;;15.43;63.3
13058;BME280;6595;49.578;11.012;2023-05-16T10:20:24;986.826;;;15.59;62.9
13058;BME280;6595;49.578;11.012;2023-05-16T10:22:23;986.653;;;15.79;60.6
13058;BME280;6595;49.578;11.012;2023-05-16T10:24:28;986.769;;;15.97;61.0
13058;BME280;6595;49.578;11.012;2023-05-16T10:26:24;986.834;;;16.10;58.8
13058;BME280;6595;49.578;11.012;2023-05-16T10:28:24;986.737;;;15.96;56.9
13058;BME280;6595;49.578;11.012;2023-05-16T10:30:24;986.713;;;15.96;57.1
13058;BME280;6595;49.578;11.012;2023-05-16T10:32:23;986.757;;;15.92;57.6
13058;BME280;6595;49.578;11.012;2023-05-16T10:34:24;986.677;;;16.21;58.4
13058;BME280;6595;49.578;11.012;2023-05-16T10:36:23;986.641;;;16.32;57.2
13058;BME280;6595;49.578;11.012;2023-05-16T10:38:23;986.584;;;16.31;56.7
13058;BME280;6595;49.578;11.012;2023-05-16T10:40:24;986.604;;;16.52;56.5
13058;BME280;6595;49.578;11.012;2023-05-16T10:42:23;986.576;;;16.37;55.6
13058;BME280;6595;49.578;11.012;2023-05-16T10:44:24;986.576;;;16.37;55.6
13058;BME280;6595;49.578;11.012;2023-05-16T10:46:25;986.489;;;16.70;57.4
13058;BME280;6595;49.578;11.012;2023-05-16T10:48:28;986.495;;;16.60;56.9
13058;BME280;6595;49.578;11.012;2023-05-16T10:50:34;986.494;;;16.47;57.6
13058;BME280;6595;49.578;11.012;2023-05-16T10:52:32;986.494;;;16.47;57.6